West Franklin, New Hampshire
Current Conditions -  °F | °C
As of 4:55 AM on Wednesday 26 Nov 2014 (Local Time) from KLCI Reporting Station
Clear Clear  
Wind Chill:   Ceiling: Unl
Heat Index:   Visibility: 10mi
Dew Point: -4°   Wind: 5mph
Humidity: 56%   Direction: 260°W
Pressure: 30.15"   Gusts: NA
Location:  43.4435°N, 71.6697°W
Report Text: KLCI 260955Z AUTO 26004KT 10SM CLR 04/M04 A3015 RMK AO1
Loading
Personal Weather Stations






























Interactive Weather Map New forecast layout! Learn more

10-Day Weather Forecast

Advertisements
Track Severe Weather on mobile